sensor_id;sensor_type;location;lat;lon;timestamp;temperature;humidity
51793;DHT22;37850;53.178;6.376;2023-10-13T00:01:13;14.00;99.90
51793;DHT22;37850;53.178;6.376;2023-10-13T00:03:39;14.00;99.90
51793;DHT22;37850;53.178;6.376;2023-10-13T00:06:05;14.10;99.90
51793;DHT22;37850;53.178;6.376;2023-10-13T00:08:31;14.10;99.90
51793;DHT22;37850;53.178;6.376;2023-10-13T00:10:57;14.10;99.90
51793;DHT22;37850;53.178;6.376;2023-10-13T00:13:29;14.20;99.90
51793;DHT22;37850;53.178;6.376;2023-10-13T00:16:08;14.20;99.90
51793;DHT22;37850;53.178;6.376;2023-10-13T00:18:36;14.20;99.90
51793;DHT22;37850;53.178;6.376;2023-10-13T00:21:10;14.30;99.90
51793;DHT22;37850;53.178;6.376;2023-10-13T00:23:44;14.30;99.90
51793;DHT22;37850;53.178;6.376;2023-10-13T00:26:23;14.40;99.90
51793;DHT22;37850;53.178;6.376;2023-10-13T00:29:00;14.40;99.90
51793;DHT22;37850;53.178;6.376;2023-10-13T00:31:41;14.40;99.90
51793;DHT22;37850;53.178;6.376;2023-10-13T00:34:12;14.50;99.90
51793;DHT22;37850;53.178;6.376;2023-10-13T00:36:45;14.50;99.90
51793;DHT22;37850;53.178;6.376;2023-10-13T00:39:29;14.50;99.90
51793;DHT22;37850;53.178;6.376;2023-10-13T00:41:55;14.50;99.90
51793;DHT22;37850;53.178;6.376;2023-10-13T00:44:31;14.50;99.90
51793;DHT22;37850;53.178;6.376;2023-10-13T00:47:04;14.50;99.90
51793;DHT22;37850;53.178;6.376;2023-10-13T00:49:34;14.60;99.90
51793;DHT22;37850;53.178;6.376;2023-10-13T00:52:06;14.60;99.90
51793;DHT22;37850;53.178;6.376;2023-10-13T00:54:34;14.70;99.90
51793;DHT22;37850;53.178;6.376;2023-10-13T00:57:02;14.60;99.90
51793;DHT22;37850;53.178;6.376;2023-10-13T00:59:40;14.70;99.90
51793;DHT22;37850;53.178;6.376;2023-10-13T01:02:11;14.70;99.90
51793;DHT22;37850;53.178;6.376;2023-10-13T01:05:04;14.70;99.90
51793;DHT22;37850;53.178;6.376;2023-10-13T01:07:30;14.70;99.90
51793;DHT22;37850;53.178;6.376;2023-10-13T01:09:56;14.80;99.90
51793;DHT22;37850;53.178;6.376;2023-10-13T01:12:22;14.70;99.90
51793;DHT22;37850;53.178;6.376;2023-10-13T01:14:51;14.90;99.90
51793;DHT22;37850;53.178;6.376;2023-10-13T01:17:17;14.90;99.90
51793;DHT22;37850;53.178;6.376;2023-10-13T01:19:43;14.90;99.90
51793;DHT22;37850;53.178;6.376;2023-10-13T01:22:11;15.00;99.90
51793;DHT22;37850;53.178;6.376;2023-10-13T01:24:37;15.00;99.90
51793;DHT22;37850;53.178;6.376;2023-10-13T01:27:03;15.00;99.90
51793;DHT22;37850;53.178;6.376;2023-10-13T01:29:40;15.10;99.90
51793;DHT22;37850;53.178;6.376;2023-10-13T01:32:06;15.10;99.90
51793;DHT22;37850;53.178;6.376;2023-10-13T01:34:31;15.10;99.90
51793;DHT22;37850;53.178;6.376;2023-10-13T01:36:59;15.10;99.90
51793;DHT22;37850;53.178;6.376;2023-10-13T01:39:31;15.20;99.90
51793;DHT22;37850;53.178;6.376;2023-10-13T01:41:56;15.30;99.90
51793;DHT22;37850;53.178;6.376;2023-10-13T01:44:26;15.30;99.90
51793;DHT22;37850;53.178;6.376;2023-10-13T01:46:54;15.30;99.90
51793;DHT22;37850;53.178;6.376;2023-10-13T01:49:20;15.30;99.90
51793;DHT22;37850;53.178;6.376;2023-10-13T01:51:48;15.40;99.90
51793;DHT22;37850;53.178;6.376;2023-10-13T01:54:14;15.40;99.90
51793;DHT22;37850;53.178;6.376;2023-10-13T01:56:41;15.40;99.90
51793;DHT22;37850;53.178;6.376;2023-10-13T01:59:13;15.40;99.90
51793;DHT22;37850;53.178;6.376;2023-10-13T02:01:39;15.50;99.90
51793;DHT22;37850;53.178;6.376;2023-10-13T02:04:07;15.50;99.90
51793;DHT22;37850;53.178;6.376;2023-10-13T02:06:34;15.50;99.90
51793;DHT22;37850;53.178;6.376;2023-10-13T02:09:08;15.50;99.90
51793;DHT22;37850;53.178;6.376;2023-10-13T02:11:51;15.50;99.90
51793;DHT22;37850;53.178;6.376;2023-10-13T02:14:21;15.50;99.90
51793;DHT22;37850;53.178;6.376;2023-10-13T02:16:51;15.60;99.90
51793;DHT22;37850;53.178;6.376;2023-10-13T02:19:22;15.60;99.90
51793;DHT22;37850;53.178;6.376;2023-10-13T02:21:52;15.60;99.90
51793;DHT22;37850;53.178;6.376;2023-10-13T02:24:24;15.60;99.90
51793;DHT22;37850;53.178;6.376;2023-10-13T02:26:56;15.60;99.90
51793;DHT22;37850;53.178;6.376;2023-10-13T02:29:28;15.60;99.90
51793;DHT22;37850;53.178;6.376;2023-10-13T02:31:53;15.60;99.90
51793;DHT22;37850;53.178;6.376;2023-10-13T02:34:22;15.60;99.90
51793;DHT22;37850;53.178;6.376;2023-10-13T02:36:49;15.70;99.90
51793;DHT22;37850;53.178;6.376;2023-10-13T02:39:15;15.70;99.90
51793;DHT22;37850;53.178;6.376;2023-10-13T02:42:01;15.70;99.90
51793;DHT22;37850;53.178;6.376;2023-10-13T02:44:33;15.70;99.90
51793;DHT22;37850;53.178;6.376;2023-10-13T02:47:03;15.70;99.90
51793;DHT22;37850;53.178;6.376;2023-10-13T02:49:39;15.80;99.90
51793;DHT22;37850;53.178;6.376;2023-10-13T02:52:09;15.80;99.90
51793;DHT22;37850;53.178;6.376;2023-10-13T02:54:37;15.80;99.90
51793;DHT22;37850;53.178;6.376;2023-10-13T02:57:12;15.80;99.90
51793;DHT22;37850;53.178;6.376;2023-10-13T02:59:38;15.80;99.90
51793;DHT22;37850;53.178;6.376;2023-10-13T03:02:12;15.80;99.90
51793;DHT22;37850;53.178;6.376;2023-10-13T03:04:56;15.80;99.90
51793;DHT22;37850;53.178;6.376;2023-10-13T03:07:28;15.90;99.90
51793;DHT22;37850;53.178;6.376;2023-10-13T03:09:56;15.90;99.90
51793;DHT22;37850;53.178;6.376;2023-10-13T03:12:27;15.90;99.90
51793;DHT22;37850;53.178;6.376;2023-10-13T03:14:58;15.90;99.90
51793;DHT22;37850;53.178;6.376;2023-10-13T03:17:38;15.90;99.90
51793;DHT22;37850;53.178;6.376;2023-10-13T03:20:10;15.90;99.90
51793;DHT22;37850;53.178;6.376;2023-10-13T03:22:38;16.00;99.90
51793;DHT22;37850;53.178;6.376;2023-10-13T03:25:04;15.90;99.90
51793;DHT22;37850;53.178;6.376;2023-10-13T03:27:31;16.00;99.90
51793;DHT22;37850;53.178;6.376;2023-10-13T03:30:26;16.00;99.90
51793;DHT22;37850;53.178;6.376;2023-10-13T03:33:05;16.00;99.90
51793;DHT22;37850;53.178;6.376;2023-10-13T03:35:38;16.00;99.90
51793;DHT22;37850;53.178;6.376;2023-10-13T03:38:05;16.00;99.90
51793;DHT22;37850;53.178;6.376;2023-10-13T03:40:44;16.00;99.90
51793;DHT22;37850;53.178;6.376;2023-10-13T03:43:14;16.00;99.90
51793;DHT22;37850;53.178;6.376;2023-10-13T03:45:45;16.00;99.90
51793;DHT22;37850;53.178;6.376;2023-10-13T03:48:18;16.00;99.90
51793;DHT22;37850;53.178;6.376;2023-10-13T03:50:50;16.10;99.90
51793;DHT22;37850;53.178;6.376;2023-10-13T03:53:32;16.10;99.90
51793;DHT22;37850;53.178;6.376;2023-10-13T03:56:06;16.10;99.90
51793;DHT22;37850;53.178;6.376;2023-10-13T03:58:41;16.10;99.90
51793;DHT22;37850;53.178;6.376;2023-10-13T04:01:19;16.10;99.90
51793;DHT22;37850;53.178;6.376;2023-10-13T04:03:50;16.10;99.90
51793;DHT22;37850;53.178;6.376;2023-10-13T04:06:32;16.10;99.90
51793;DHT22;37850;53.178;6.376;2023-10-13T04:09:21;16.10;99.90
51793;DHT22;37850;53.178;6.376;2023-10-13T04:11:53;16.10;99.90
51793;DHT22;37850;53.178;6.376;2023-10-13T04:17:03;16.10;99.90
51793;DHT22;37850;53.178;6.376;2023-10-13T04:19:37;16.20;99.90
51793;DHT22;37850;53.178;6.376;2023-10-13T04:22:23;16.10;99.90
51793;DHT22;37850;53.178;6.376;2023-10-13T04:25:08;16.10;99.90
51793;DHT22;37850;53.178;6.376;2023-10-13T04:27:54;16.20;99.90
51793;DHT22;37850;53.178;6.376;2023-10-13T04:36:16;16.20;99.90
51793;DHT22;37850;53.178;6.376;2023-10-13T04:38:52;16.20;99.90
51793;DHT22;37850;53.178;6.376;2023-10-13T04:44:18;16.20;99.90
51793;DHT22;37850;53.178;6.376;2023-10-13T04:46:53;16.20;99.90
51793;DHT22;37850;53.178;6.376;2023-10-13T04:49:23;16.20;99.90
51793;DHT22;37850;53.178;6.376;2023-10-13T04:51:59;16.10;99.90
51793;DHT22;37850;53.178;6.376;2023-10-13T04:54:44;16.30;99.90
51793;DHT22;37850;53.178;6.376;2023-10-13T04:57:18;16.30;99.90
51793;DHT22;37850;53.178;6.376;2023-10-13T05:00:04;16.20;99.90
51793;DHT22;37850;53.178;6.376;2023-10-13T05:02:33;16.20;99.90
51793;DHT22;37850;53.178;6.376;2023-10-13T05:05:12;16.30;99.90
51793;DHT22;37850;53.178;6.376;2023-10-13T05:08:07;16.20;99.90
51793;DHT22;37850;53.178;6.376;2023-10-13T05:10:52;16.20;99.90
51793;DHT22;37850;53.178;6.376;2023-10-13T05:13:36;16.30;99.90
51793;DHT22;37850;53.178;6.376;2023-10-13T05:16:23;16.20;99.90
51793;DHT22;37850;53.178;6.376;2023-10-13T05:19:07;16.30;99.90
51793;DHT22;37850;53.178;6.376;2023-10-13T05:21:51;16.30;99.90
51793;DHT22;37850;53.178;6.376;2023-10-13T05:24:36;16.30;99.90
51793;DHT22;37850;53.178;6.376;2023-10-13T05:27:21;16.20;99.90
51793;DHT22;37850;53.178;6.376;2023-10-13T05:30:05;16.30;99.90
51793;DHT22;37850;53.178;6.376;2023-10-13T05:32:52;16.30;99.90
51793;DHT22;37850;53.178;6.376;2023-10-13T05:35:36;16.20;99.90
51793;DHT22;37850;53.178;6.376;2023-10-13T05:38:21;16.20;99.90
51793;DHT22;37850;53.178;6.376;2023-10-13T05:41:09;16.20;99.90
51793;DHT22;37850;53.178;6.376;2023-10-13T05:43:54;16.20;99.90
51793;DHT22;37850;53.178;6.376;2023-10-13T05:46:38;16.30;99.90
51793;DHT22;37850;53.178;6.376;2023-10-13T05:49:05;16.20;99.90
51793;DHT22;37850;53.178;6.376;2023-10-13T05:51:32;16.10;99.90
51793;DHT22;37850;53.178;6.376;2023-10-13T05:54:02;16.10;99.90
51793;DHT22;37850;53.178;6.376;2023-10-13T05:56:51;16.30;99.90
51793;DHT22;37850;53.178;6.376;2023-10-13T05:59:37;16.10;99.90
51793;DHT22;37850;53.178;6.376;2023-10-13T06:02:22;16.30;99.90
51793;DHT22;37850;53.178;6.376;2023-10-13T06:05:09;16.10;99.90
51793;DHT22;37850;53.178;6.376;2023-10-13T06:07:53;16.10;99.90
51793;DHT22;37850;53.178;6.376;2023-10-13T06:10:38;16.10;99.90
51793;DHT22;37850;53.178;6.376;2023-10-13T06:13:23;16.10;99.90
51793;DHT22;37850;53.178;6.376;2023-10-13T06:16:12;16.00;99.90
51793;DHT22;37850;53.178;6.376;2023-10-13T06:18:58;16.00;99.90
51793;DHT22;37850;53.178;6.376;2023-10-13T06:21:43;16.00;99.90
51793;DHT22;37850;53.178;6.376;2023-10-13T06:24:27;16.00;99.90
51793;DHT22;37850;53.178;6.376;2023-10-13T06:27:12;16.00;99.90
51793;DHT22;37850;53.178;6.376;2023-10-13T06:29:56;16.00;99.90
51793;DHT22;37850;53.178;6.376;2023-10-13T06:32:25;16.00;99.90
51793;DHT22;37850;53.178;6.376;2023-10-13T06:34:54;16.00;99.90
51793;DHT22;37850;53.178;6.376;2023-10-13T06:37:46;16.10;99.90
51793;DHT22;37850;53.178;6.376;2023-10-13T06:40:12;16.00;99.90
51793;DHT22;37850;53.178;6.376;2023-10-13T06:42:56;16.00;99.90
51793;DHT22;37850;53.178;6.376;2023-10-13T06:45:38;16.00;99.90
51793;DHT22;37850;53.178;6.376;2023-10-13T06:48:07;16.10;99.90
51793;DHT22;37850;53.178;6.376;2023-10-13T06:50:36;16.10;99.90
51793;DHT22;37850;53.178;6.376;2023-10-13T06:53:07;16.10;99.90
51793;DHT22;37850;53.178;6.376;2023-10-13T06:55:37;16.10;99.90
51793;DHT22;37850;53.178;6.376;2023-10-13T06:58:06;16.10;99.90
51793;DHT22;37850;53.178;6.376;2023-10-13T07:00:33;16.20;99.90
51793;DHT22;37850;53.178;6.376;2023-10-13T07:03:04;16.30;99.90
51793;DHT22;37850;53.178;6.376;2023-10-13T07:05:44;16.20;99.90
51793;DHT22;37850;53.178;6.376;2023-10-13T07:08:14;16.20;99.90
51793;DHT22;37850;53.178;6.376;2023-10-13T07:10:56;16.20;99.90
51793;DHT22;37850;53.178;6.376;2023-10-13T07:13:29;16.20;99.90
51793;DHT22;37850;53.178;6.376;2023-10-13T07:15:55;16.20;99.90
51793;DHT22;37850;53.178;6.376;2023-10-13T07:18:30;16.20;99.90
51793;DHT22;37850;53.178;6.376;2023-10-13T07:21:04;16.20;99.90
51793;DHT22;37850;53.178;6.376;2023-10-13T07:23:37;16.20;99.90
51793;DHT22;37850;53.178;6.376;2023-10-13T07:26:05;16.30;99.90
51793;DHT22;37850;53.178;6.376;2023-10-13T07:28:32;16.30;99.90
51793;DHT22;37850;53.178;6.376;2023-10-13T07:31:05;16.30;99.90
51793;DHT22;37850;53.178;6.376;2023-10-13T07:33:31;16.20;99.90
51793;DHT22;37850;53.178;6.376;2023-10-13T07:36:04;16.20;99.90
51793;DHT22;37850;53.178;6.376;2023-10-13T07:38:51;16.20;99.90
51793;DHT22;37850;53.178;6.376;2023-10-13T07:41:36;16.30;99.90
51793;DHT22;37850;53.178;6.376;2023-10-13T07:44:02;16.30;99.90
51793;DHT22;37850;53.178;6.376;2023-10-13T07:46:30;16.30;99.90
51793;DHT22;37850;53.178;6.376;2023-10-13T07:49:00;16.20;99.90
51793;DHT22;37850;53.178;6.376;2023-10-13T07:51:35;16.20;99.90
51793;DHT22;37850;53.178;6.376;2023-10-13T07:54:13;16.20;99.90
51793;DHT22;37850;53.178;6.376;2023-10-13T07:56:44;16.20;99.90
51793;DHT22;37850;53.178;6.376;2023-10-13T07:59:09;16.20;99.90
51793;DHT22;37850;53.178;6.376;2023-10-13T08:01:35;16.10;99.90
51793;DHT22;37850;53.178;6.376;2023-10-13T08:04:01;16.20;99.90
51793;DHT22;37850;53.178;6.376;2023-10-13T08:06:35;16.20;99.90
51793;DHT22;37850;53.178;6.376;2023-10-13T08:09:02;16.10;99.90
51793;DHT22;37850;53.178;6.376;2023-10-13T08:11:38;16.20;99.90
51793;DHT22;37850;53.178;6.376;2023-10-13T08:14:05;16.20;99.90
51793;DHT22;37850;53.178;6.376;2023-10-13T08:16:54;16.20;99.90
51793;DHT22;37850;53.178;6.376;2023-10-13T08:19:28;16.30;99.90
51793;DHT22;37850;53.178;6.376;2023-10-13T08:22:06;16.30;99.90
51793;DHT22;37850;53.178;6.376;2023-10-13T08:24:48;16.30;99.90
51793;DHT22;37850;53.178;6.376;2023-10-13T08:27:16;16.30;99.90
51793;DHT22;37850;53.178;6.376;2023-10-13T08:30:02;16.30;99.90
51793;DHT22;37850;53.178;6.376;2023-10-13T08:32:28;16.30;99.90
51793;DHT22;37850;53.178;6.376;2023-10-13T08:34:59;16.40;99.90
51793;DHT22;37850;53.178;6.376;2023-10-13T08:37:36;16.30;99.90
51793;DHT22;37850;53.178;6.376;2023-10-13T08:40:17;16.40;99.90
51793;DHT22;37850;53.178;6.376;2023-10-13T08:43:06;16.40;99.90
51793;DHT22;37850;53.178;6.376;2023-10-13T08:45:41;16.40;99.90
51793;DHT22;37850;53.178;6.376;2023-10-13T08:48:13;16.40;99.90
51793;DHT22;37850;53.178;6.376;2023-10-13T08:50:52;16.50;99.90
51793;DHT22;37850;53.178;6.376;2023-10-13T08:53:22;16.50;99.90
51793;DHT22;37850;53.178;6.376;2023-10-13T08:56:01;16.50;99.90
51793;DHT22;37850;53.178;6.376;2023-10-13T08:58:30;16.60;99.90
51793;DHT22;37850;53.178;6.376;2023-10-13T09:01:14;16.50;99.90
51793;DHT22;37850;53.178;6.376;2023-10-13T09:04:01;16.60;99.90
51793;DHT22;37850;53.178;6.376;2023-10-13T09:06:53;16.60;99.90
51793;DHT22;37850;53.178;6.376;2023-10-13T09:09:32;16.70;99.90
51793;DHT22;37850;53.178;6.376;2023-10-13T09:12:20;16.70;99.90
51793;DHT22;37850;53.178;6.376;2023-10-13T09:15:05;16.70;99.90
51793;DHT22;37850;53.178;6.376;2023-10-13T09:17:41;16.80;99.90
51793;DHT22;37850;53.178;6.376;2023-10-13T09:20:14;16.90;99.90
51793;DHT22;37850;53.178;6.376;2023-10-13T09:22:51;16.90;99.90
51793;DHT22;37850;53.178;6.376;2023-10-13T09:25:37;16.90;99.90
51793;DHT22;37850;53.178;6.376;2023-10-13T09:28:11;17.00;99.90
51793;DHT22;37850;53.178;6.376;2023-10-13T09:30:48;17.00;99.90
51793;DHT22;37850;53.178;6.376;2023-10-13T09:33:13;17.10;99.90
51793;DHT22;37850;53.178;6.376;2023-10-13T09:35:46;17.30;99.90
51793;DHT22;37850;53.178;6.376;2023-10-13T09:38:16;17.20;99.90
51793;DHT22;37850;53.178;6.376;2023-10-13T09:40:43;17.30;99.90
51793;DHT22;37850;53.178;6.376;2023-10-13T09:43:28;17.20;99.90
51793;DHT22;37850;53.178;6.376;2023-10-13T09:45:59;17.30;99.90
51793;DHT22;37850;53.178;6.376;2023-10-13T09:48:37;17.40;99.90
51793;DHT22;37850;53.178;6.376;2023-10-13T09:51:12;17.40;99.90
51793;DHT22;37850;53.178;6.376;2023-10-13T09:53:44;17.40;99.90
51793;DHT22;37850;53.178;6.376;2023-10-13T09:56:25;17.50;99.90
51793;DHT22;37850;53.178;6.376;2023-10-13T09:59:00;17.50;99.90
51793;DHT22;37850;53.178;6.376;2023-10-13T10:01:38;17.70;99.90
51793;DHT22;37850;53.178;6.376;2023-10-13T10:04:11;17.60;99.90
51793;DHT22;37850;53.178;6.376;2023-10-13T10:06:55;17.70;99.90
51793;DHT22;37850;53.178;6.376;2023-10-13T10:09:32;17.70;99.90
51793;DHT22;37850;53.178;6.376;2023-10-13T10:12:24;17.70;99.90
51793;DHT22;37850;53.178;6.376;2023-10-13T10:17:47;17.80;99.90
51793;DHT22;37850;53.178;6.376;2023-10-13T10:20:15;17.80;99.90
51793;DHT22;37850;53.178;6.376;2023-10-13T10:22:56;17.80;99.90
51793;DHT22;37850;53.178;6.376;2023-10-13T10:25:34;17.90;99.90
51793;DHT22;37850;53.178;6.376;2023-10-13T10:28:07;17.90;99.90
51793;DHT22;37850;53.178;6.376;2023-10-13T10:30:37;17.90;99.90
51793;DHT22;37850;53.178;6.376;2023-10-13T10:33:08;18.00;99.90
51793;DHT22;37850;53.178;6.376;2023-10-13T10:35:41;18.00;99.90
51793;DHT22;37850;53.178;6.376;2023-10-13T10:40:57;18.10;99.90
51793;DHT22;37850;53.178;6.376;2023-10-13T10:43:28;18.20;99.90
51793;DHT22;37850;53.178;6.376;2023-10-13T10:46:27;18.20;99.90
51793;DHT22;37850;53.178;6.376;2023-10-13T10:48:55;18.30;99.90
51793;DHT22;37850;53.178;6.376;2023-10-13T10:51:28;18.30;99.90
51793;DHT22;37850;53.178;6.376;2023-10-13T10:53:58;18.30;99.90
51793;DHT22;37850;53.178;6.376;2023-10-13T10:56:36;18.40;99.90
51793;DHT22;37850;53.178;6.376;2023-10-13T10:59:07;18.40;99.90
51793;DHT22;37850;53.178;6.376;2023-10-13T11:01:44;18.50;99.90
51793;DHT22;37850;53.178;6.376;2023-10-13T11:04:16;18.50;99.90
51793;DHT22;37850;53.178;6.376;2023-10-13T11:06:54;18.50;99.90
51793;DHT22;37850;53.178;6.376;2023-10-13T11:09:27;18.60;99.90
51793;DHT22;37850;53.178;6.376;2023-10-13T11:14:32;18.60;99.90
51793;DHT22;37850;53.178;6.376;2023-10-13T11:16:59;18.60;99.90
51793;DHT22;37850;53.178;6.376;2023-10-13T11:19:43;18.70;99.90
51793;DHT22;37850;53.178;6.376;2023-10-13T11:22:18;18.80;99.90
51793;DHT22;37850;53.178;6.376;2023-10-13T11:25:06;18.70;99.90
51793;DHT22;37850;53.178;6.376;2023-10-13T11:27:35;18.70;99.90
51793;DHT22;37850;53.178;6.376;2023-10-13T11:30:15;18.70;99.90
51793;DHT22;37850;53.178;6.376;2023-10-13T11:33:11;18.80;99.90
51793;DHT22;37850;53.178;6.376;2023-10-13T11:35:44;18.80;99.90
51793;DHT22;37850;53.178;6.376;2023-10-13T11:38:23;18.80;99.90
51793;DHT22;37850;53.178;6.376;2023-10-13T11:41:00;18.80;99.90
51793;DHT22;37850;53.178;6.376;2023-10-13T11:43:26;18.90;99.90
51793;DHT22;37850;53.178;6.376;2023-10-13T11:45:52;18.90;99.90
51793;DHT22;37850;53.178;6.376;2023-10-13T11:48:39;18.80;99.90
51793;DHT22;37850;53.178;6.376;2023-10-13T11:51:11;18.80;99.90
51793;DHT22;37850;53.178;6.376;2023-10-13T11:53:57;18.80;99.90
51793;DHT22;37850;53.178;6.376;2023-10-13T11:56:23;18.60;99.90
51793;DHT22;37850;53.178;6.376;2023-10-13T11:58:50;18.70;99.90
51793;DHT22;37850;53.178;6.376;2023-10-13T12:01:17;18.60;99.90
51793;DHT22;37850;53.178;6.376;2023-10-13T12:03:44;18.60;99.90
51793;DHT22;37850;53.178;6.376;2023-10-13T12:06:31;18.60;99.90
51793;DHT22;37850;53.178;6.376;2023-10-13T12:09:10;18.60;99.90
51793;DHT22;37850;53.178;6.376;2023-10-13T12:11:42;18.60;99.90
51793;DHT22;37850;53.178;6.376;2023-10-13T12:14:08;18.70;99.90
51793;DHT22;37850;53.178;6.376;2023-10-13T12:16:43;18.70;99.90
51793;DHT22;37850;53.178;6.376;2023-10-13T12:19:20;18.70;99.90
51793;DHT22;37850;53.178;6.376;2023-10-13T12:21:53;18.70;99.90
51793;DHT22;37850;53.178;6.376;2023-10-13T12:24:30;18.70;99.90
51793;DHT22;37850;53.178;6.376;2023-10-13T12:27:06;18.80;99.90
51793;DHT22;37850;53.178;6.376;2023-10-13T12:29:49;18.80;99.90
51793;DHT22;37850;53.178;6.376;2023-10-13T12:32:25;18.80;99.90
51793;DHT22;37850;53.178;6.376;2023-10-13T12:34:56;18.80;99.90
51793;DHT22;37850;53.178;6.376;2023-10-13T12:37:26;18.80;99.90
51793;DHT22;37850;53.178;6.376;2023-10-13T12:40:05;18.80;99.90
51793;DHT22;37850;53.178;6.376;2023-10-13T12:42:53;18.80;99.90
51793;DHT22;37850;53.178;6.376;2023-10-13T12:45:41;18.80;99.90
51793;DHT22;37850;53.178;6.376;2023-10-13T12:48:28;18.80;99.90
51793;DHT22;37850;53.178;6.376;2023-10-13T12:51:13;18.70;99.90
51793;DHT22;37850;53.178;6.376;2023-10-13T12:53:55;18.70;99.90
51793;DHT22;37850;53.178;6.376;2023-10-13T12:56:21;18.70;99.90
51793;DHT22;37850;53.178;6.376;2023-10-13T12:58:55;18.70;99.90
51793;DHT22;37850;53.178;6.376;2023-10-13T13:01:26;18.60;99.90
51793;DHT22;37850;53.178;6.376;2023-10-13T13:03:59;18.60;99.90
51793;DHT22;37850;53.178;6.376;2023-10-13T13:06:28;18.60;99.90
51793;DHT22;37850;53.178;6.376;2023-10-13T13:08:59;18.60;99.90
51793;DHT22;37850;53.178;6.376;2023-10-13T13:11:26;18.50;99.90
51793;DHT22;37850;53.178;6.376;2023-10-13T13:13:54;18.50;99.90
51793;DHT22;37850;53.178;6.376;2023-10-13T13:16:19;18.50;99.90
51793;DHT22;37850;53.178;6.376;2023-10-13T13:18:50;18.40;99.90
51793;DHT22;37850;53.178;6.376;2023-10-13T13:21:22;18.40;99.90
51793;DHT22;37850;53.178;6.376;2023-10-13T13:23:53;18.40;99.90
51793;DHT22;37850;53.178;6.376;2023-10-13T13:26:22;18.30;99.90
51793;DHT22;37850;53.178;6.376;2023-10-13T13:28:48;18.30;99.90
51793;DHT22;37850;53.178;6.376;2023-10-13T13:31:18;18.30;99.90
51793;DHT22;37850;53.178;6.376;2023-10-13T13:33:43;18.30;99.90
51793;DHT22;37850;53.178;6.376;2023-10-13T13:36:12;18.30;99.90
51793;DHT22;37850;53.178;6.376;2023-10-13T13:38:43;18.30;99.90
51793;DHT22;37850;53.178;6.376;2023-10-13T13:41:15;18.20;99.90
51793;DHT22;37850;53.178;6.376;2023-10-13T13:43:45;18.20;99.90
51793;DHT22;37850;53.178;6.376;2023-10-13T13:46:16;18.20;99.90
51793;DHT22;37850;53.178;6.376;2023-10-13T13:48:42;18.20;99.90
51793;DHT22;37850;53.178;6.376;2023-10-13T13:51:09;18.20;99.90
51793;DHT22;37850;53.178;6.376;2023-10-13T13:53:42;18.20;99.90
51793;DHT22;37850;53.178;6.376;2023-10-13T13:56:14;18.20;99.90
51793;DHT22;37850;53.178;6.376;2023-10-13T13:58:43;18.20;99.90
51793;DHT22;37850;53.178;6.376;2023-10-13T14:01:09;18.20;99.90
51793;DHT22;37850;53.178;6.376;2023-10-13T14:03:39;18.20;99.90
51793;DHT22;37850;53.178;6.376;2023-10-13T14:06:11;18.20;99.90
51793;DHT22;37850;53.178;6.376;2023-10-13T14:08:44;18.20;99.90
51793;DHT22;37850;53.178;6.376;2023-10-13T14:11:15;18.20;99.90
51793;DHT22;37850;53.178;6.376;2023-10-13T14:14:00;18.20;99.90
51793;DHT22;37850;53.178;6.376;2023-10-13T14:16:30;18.20;99.90
51793;DHT22;37850;53.178;6.376;2023-10-13T14:18:59;18.20;99.90
51793;DHT22;37850;53.178;6.376;2023-10-13T14:21:28;18.20;99.90
51793;DHT22;37850;53.178;6.376;2023-10-13T14:23:54;18.30;99.90
51793;DHT22;37850;53.178;6.376;2023-10-13T14:26:23;18.30;99.90
51793;DHT22;37850;53.178;6.376;2023-10-13T14:28:52;18.30;99.90
51793;DHT22;37850;53.178;6.376;2023-10-13T14:31:40;18.30;99.90
51793;DHT22;37850;53.178;6.376;2023-10-13T14:34:07;18.30;99.90
51793;DHT22;37850;53.178;6.376;2023-10-13T14:36:32;18.30;99.90
51793;DHT22;37850;53.178;6.376;2023-10-13T14:39:04;18.30;99.90
51793;DHT22;37850;53.178;6.376;2023-10-13T14:41:37;18.30;99.90
51793;DHT22;37850;53.178;6.376;2023-10-13T14:44:03;18.30;99.90
51793;DHT22;37850;53.178;6.376;2023-10-13T14:46:33;18.40;99.90
51793;DHT22;37850;53.178;6.376;2023-10-13T14:49:01;18.30;99.90
51793;DHT22;37850;53.178;6.376;2023-10-13T14:51:28;18.30;99.90
51793;DHT22;37850;53.178;6.376;2023-10-13T14:53:55;18.30;99.90
51793;DHT22;37850;53.178;6.376;2023-10-13T14:56:26;18.30;99.90
51793;DHT22;37850;53.178;6.376;2023-10-13T14:58:53;18.30;99.90
51793;DHT22;37850;53.178;6.376;2023-10-13T15:01:22;18.30;99.90
51793;DHT22;37850;53.178;6.376;2023-10-13T15:03:49;18.30;99.90
51793;DHT22;37850;53.178;6.376;2023-10-13T15:06:21;18.30;99.90
51793;DHT22;37850;53.178;6.376;2023-10-13T15:08:51;18.40;99.90
51793;DHT22;37850;53.178;6.376;2023-10-13T15:11:25;18.40;99.90
51793;DHT22;37850;53.178;6.376;2023-10-13T15:14:02;18.40;99.90
51793;DHT22;37850;53.178;6.376;2023-10-13T15:16:29;18.40;99.90
51793;DHT22;37850;53.178;6.376;2023-10-13T15:18:55;18.40;99.90
51793;DHT22;37850;53.178;6.376;2023-10-13T15:21:30;18.30;99.90
51793;DHT22;37850;53.178;6.376;2023-10-13T15:24:00;18.30;99.90
51793;DHT22;37850;53.178;6.376;2023-10-13T15:26:30;18.30;99.90
51793;DHT22;37850;53.178;6.376;2023-10-13T15:28:58;18.20;99.90
51793;DHT22;37850;53.178;6.376;2023-10-13T15:31:26;18.20;99.90
51793;DHT22;37850;53.178;6.376;2023-10-13T15:34:04;18.20;99.90
51793;DHT22;37850;53.178;6.376;2023-10-13T15:36:42;18.20;99.90
51793;DHT22;37850;53.178;6.376;2023-10-13T15:39:12;18.20;99.90
51793;DHT22;37850;53.178;6.376;2023-10-13T15:41:41;18.10;99.90
51793;DHT22;37850;53.178;6.376;2023-10-13T15:44:12;18.10;99.90
51793;DHT22;37850;53.178;6.376;2023-10-13T15:46:39;18.10;99.90
51793;DHT22;37850;53.178;6.376;2023-10-13T15:49:06;18.20;99.90
51793;DHT22;37850;53.178;6.376;2023-10-13T15:51:32;18.10;99.90
51793;DHT22;37850;53.178;6.376;2023-10-13T15:54:03;18.10;99.90
51793;DHT22;37850;53.178;6.376;2023-10-13T15:56:29;18.10;99.90
51793;DHT22;37850;53.178;6.376;2023-10-13T15:59:01;18.10;99.90
51793;DHT22;37850;53.178;6.376;2023-10-13T16:01:27;18.10;99.90
51793;DHT22;37850;53.178;6.376;2023-10-13T16:03:54;18.00;99.90
51793;DHT22;37850;53.178;6.376;2023-10-13T16:06:20;18.10;99.90
51793;DHT22;37850;53.178;6.376;2023-10-13T16:08:52;18.00;99.90
51793;DHT22;37850;53.178;6.376;2023-10-13T16:11:18;18.00;99.90
51793;DHT22;37850;53.178;6.376;2023-10-13T16:13:48;18.00;99.90
51793;DHT22;37850;53.178;6.376;2023-10-13T16:16:23;18.00;99.90
51793;DHT22;37850;53.178;6.376;2023-10-13T16:18:52;18.00;99.90
51793;DHT22;37850;53.178;6.376;2023-10-13T16:21:19;18.00;99.90
51793;DHT22;37850;53.178;6.376;2023-10-13T16:23:47;18.00;99.90
51793;DHT22;37850;53.178;6.376;2023-10-13T16:26:22;18.00;99.90
51793;DHT22;37850;53.178;6.376;2023-10-13T16:28:49;18.00;99.90
51793;DHT22;37850;53.178;6.376;2023-10-13T16:31:19;18.00;99.90